Time;durP1;ratioP1;P1;durP2;ratioP2;P2;SDS_P1;SDS_P2;PMS_P1;PMS_P2;Temp;Humidity;BMP_temperature;BMP_pressure;BME280_temperature;BME280_humidity;BME280_pressure;Samples;Min_cycle;Max_cycle;Signal;HPM_P1;HPM_P2
2021/08/31 00:02:24;;;;;;;31.38;19.88;;;14.80;99.90;;;;;;5073967;28;20418;-75
2021/08/31 00:04:50;;;;;;;31.90;21.23;;;14.90;97.90;;;;;;5073807;28;20399;-74
2021/08/31 00:07:15;;;;;;;31.57;20.97;;;14.90;97.30;;;;;;5073683;28;20904;-75
2021/08/31 00:09:41;;;;;;;29.93;20.10;;;15.00;95.60;;;;;;5073777;28;20780;-75
2021/08/31 00:12:07;;;;;;;29.87;20.17;;;15.00;94.50;;;;;;5073634;28;20392;-75
2021/08/31 00:14:35;;;;;;;41.17;20.45;;;15.00;94.30;;;;;;5073379;28;20893;-75
2021/08/31 00:17:01;;;;;;;32.40;20.10;;;14.90;94.90;;;;;;5073718;28;20399;-76
2021/08/31 00:19:27;;;;;;;35.00;22.57;;;14.90;97.00;;;;;;5073573;28;20758;-76
2021/08/31 00:21:52;;;;;;;29.97;20.03;;;14.90;96.30;;;;;;5073470;28;20375;-75
2021/08/31 00:24:18;;;;;;;32.20;20.93;;;14.90;96.40;;;;;;5055596;28;20395;-76
2021/08/31 00:26:44;;;;;;;31.65;21.23;;;14.90;96.60;;;;;;5073198;28;20507;-75
2021/08/31 00:29:09;;;;;;;31.42;21.58;;;14.90;96.60;;;;;;5073271;28;20412;-76
2021/08/31 00:31:35;;;;;;;34.33;21.83;;;14.80;96.00;;;;;;5073315;28;20411;-75
2021/08/31 00:34:00;;;;;;;31.77;21.50;;;14.70;96.60;;;;;;5063821;28;20394;-76
2021/08/31 00:36:26;;;;;;;37.10;22.37;;;14.60;98.50;;;;;;5074085;28;20437;-76
2021/08/31 00:38:51;;;;;;;32.93;22.50;;;14.40;99.90;;;;;;5073590;28;20386;-76
2021/08/31 00:41:17;;;;;;;39.33;23.73;;;14.30;99.90;;;;;;5055779;28;20395;-76
2021/08/31 00:43:48;;;;;;;42.75;24.02;;;14.50;99.90;;;;;;5073981;28;20470;-76
2021/08/31 00:46:19;;;;;;;33.88;22.90;;;14.70;99.90;;;;;;5073721;28;20419;-76
2021/08/31 00:48:46;;;;;;;34.78;22.67;;;14.60;98.80;;;;;;5073272;28;20487;-76
2021/08/31 00:51:13;;;;;;;35.70;22.80;;;14.60;99.40;;;;;;5073402;28;20736;-76
2021/08/31 00:53:40;;;;;;;33.45;22.40;;;14.60;98.90;;;;;;5073722;28;20457;-76
2021/08/31 00:56:11;;;;;;;35.25;23.30;;;14.70;97.50;;;;;;5073460;28;20745;-76
2021/08/31 00:58:39;;;;;;;33.15;22.42;;;14.70;97.40;;;;;;5074283;28;20390;-76
2021/08/31 01:01:05;;;;;;;42.38;24.90;;;14.70;97.00;;;;;;5074314;28;20387;-76
2021/08/31 01:03:30;;;;;;;34.00;23.57;;;14.60;99.30;;;;;;5075164;28;20420;-77
2021/08/31 01:06:01;;;;;;;34.15;23.73;;;14.50;99.90;;;;;;5074697;28;20498;-76
2021/08/31 01:08:28;;;;;;;38.55;25.13;;;14.50;99.90;;;;;;5074092;28;20449;-76
2021/08/31 01:10:56;;;;;;;38.42;23.23;;;14.60;99.90;;;;;;5073941;28;20375;-76
2021/08/31 01:13:22;;;;;;;37.60;24.00;;;14.60;99.40;;;;;;5074486;28;20477;-76
2021/08/31 01:15:48;;;;;;;33.53;23.10;;;14.70;97.90;;;;;;5075178;28;20466;-76
2021/08/31 01:18:21;;;;;;;39.17;24.02;;;14.70;96.90;;;;;;5073583;28;20407;-76
2021/08/31 01:20:49;;;;;;;40.00;25.48;;;14.60;96.70;;;;;;5075367;28;20421;-77
2021/08/31 01:23:15;;;;;;;37.10;24.42;;;14.60;96.30;;;;;;5077113;28;20380;-77
2021/08/31 01:25:42;;;;;;;42.20;24.85;;;14.60;96.50;;;;;;5078332;28;20383;-76
2021/08/31 01:28:07;;;;;;;44.70;25.65;;;14.60;96.80;;;;;;5077997;28;20411;-76
2021/08/31 01:30:33;;;;;;;37.22;23.85;;;14.50;97.20;;;;;;5077934;28;20441;-76
2021/08/31 01:33:00;;;;;;;39.60;24.80;;;14.40;98.80;;;;;;5073927;28;20740;-76
2021/08/31 01:35:25;;;;;;;43.10;26.05;;;14.40;99.90;;;;;;5072876;28;20384;-76
2021/08/31 01:37:51;;;;;;;39.75;24.90;;;14.40;99.50;;;;;;5073908;28;20390;-77
2021/08/31 01:40:17;;;;;;;40.22;26.10;;;14.40;99.90;;;;;;5073458;28;20388;-77
2021/08/31 01:42:42;;;;;;;41.28;26.48;;;14.40;99.60;;;;;;5074738;28;20902;-75
2021/08/31 01:45:08;;;;;;;40.57;26.50;;;14.40;99.90;;;;;;5073865;28;20959;-76
2021/08/31 01:47:33;;;;;;;47.13;26.80;;;14.40;99.90;;;;;;5071938;28;20399;-76
2021/08/31 01:49:59;;;;;;;41.20;26.87;;;14.50;99.10;;;;;;5072452;28;20384;-76
2021/08/31 01:52:24;;;;;;;43.50;27.20;;;14.40;99.40;;;;;;5072338;28;20445;-76
2021/08/31 01:54:50;;;;;;;44.47;27.90;;;14.30;99.90;;;;;;5073004;28;20398;-76
2021/08/31 01:57:16;;;;;;;40.05;26.30;;;14.40;99.90;;;;;;5072705;28;20383;-77
2021/08/31 01:59:41;;;;;;;40.87;26.73;;;14.30;99.90;;;;;;5073620;28;20388;-76
2021/08/31 02:02:07;;;;;;;41.90;27.73;;;14.40;99.90;;;;;;5080586;28;21215;-77
2021/08/31 02:04:32;;;;;;;41.77;26.90;;;14.20;99.90;;;;;;5075260;28;20785;-76
2021/08/31 02:07:00;;;;;;;46.53;29.00;;;14.30;99.90;;;;;;5073638;28;20424;-76
2021/08/31 02:09:25;;;;;;;47.47;28.70;;;14.30;99.90;;;;;;5071997;28;20387;-76
2021/08/31 02:11:51;;;;;;;45.80;29.33;;;14.40;99.90;;;;;;5071377;28;20375;-76
2021/08/31 02:14:17;;;;;;;41.80;29.48;;;14.30;99.90;;;;;;5071389;28;20387;-77
2021/08/31 02:16:42;;;;;;;43.00;29.40;;;14.30;99.90;;;;;;5071108;28;20391;-76
2021/08/31 02:19:08;;;;;;;49.00;29.87;;;14.40;99.90;;;;;;5071008;28;20411;-77
2021/08/31 02:21:33;;;;;;;46.80;30.00;;;14.40;99.90;;;;;;5072152;28;20391;-76
2021/08/31 02:23:59;;;;;;;44.67;29.70;;;14.50;99.90;;;;;;5071640;28;20764;-77
2021/08/31 02:26:28;;;;;;;49.50;29.67;;;14.50;99.90;;;;;;5071212;28;20428;-77
2021/08/31 02:28:54;;;;;;;51.92;31.42;;;14.50;99.90;;;;;;5051999;28;20866;-77
2021/08/31 02:31:19;;;;;;;51.88;31.83;;;14.50;99.90;;;;;;5033466;28;20461;-77
2021/08/31 02:33:45;;;;;;;53.07;33.53;;;14.50;99.90;;;;;;5043554;28;20372;-77
2021/08/31 02:36:10;;;;;;;54.67;33.70;;;14.50;99.90;;;;;;5071256;28;20536;-77
2021/08/31 02:38:36;;;;;;;52.33;34.20;;;14.40;99.90;;;;;;5053409;28;20384;-76
2021/08/31 02:41:02;;;;;;;54.95;33.35;;;14.50;99.90;;;;;;5071142;28;20391;-75
2021/08/31 02:43:27;;;;;;;54.42;33.38;;;14.40;99.90;;;;;;5074678;28;20861;-74
2021/08/31 02:45:53;;;;;;;54.75;33.33;;;14.40;99.90;;;;;;5074945;28;20388;-75
2021/08/31 02:48:18;;;;;;;54.73;33.60;;;14.40;99.90;;;;;;5072178;28;20878;-76
2021/08/31 02:50:44;;;;;;;62.17;35.10;;;14.40;99.90;;;;;;5071559;28;20762;-76
2021/08/31 02:53:09;;;;;;;52.27;33.83;;;14.50;99.90;;;;;;5057353;28;20398;-77
2021/08/31 02:55:35;;;;;;;57.43;35.70;;;14.60;99.90;;;;;;5072312;28;20889;-76
2021/08/31 02:58:00;;;;;;;54.72;35.15;;;14.50;99.90;;;;;;5070777;28;20379;-76
2021/08/31 03:00:30;;;;;;;61.53;35.22;;;14.40;99.90;;;;;;5054940;28;20383;-78
2021/08/31 03:02:56;;;;;;;62.33;38.58;;;14.40;99.90;;;;;;5085846;28;20380;-77
2021/08/31 03:05:22;;;;;;;58.72;37.05;;;14.30;99.90;;;;;;5075078;28;20532;-79
2021/08/31 03:07:47;;;;;;;59.25;37.05;;;14.30;99.90;;;;;;5072023;28;20545;-77
2021/08/31 03:10:13;;;;;;;59.30;39.13;;;14.30;99.90;;;;;;5071400;28;20856;-77
2021/08/31 03:12:38;;;;;;;64.95;38.45;;;14.30;99.90;;;;;;5071365;28;20383;-77
2021/08/31 03:15:05;;;;;;;55.58;36.80;;;14.20;99.90;;;;;;5071649;28;20410;-78
2021/08/31 03:17:31;;;;;;;66.07;39.17;;;14.20;99.90;;;;;;5072604;28;20714;-77
2021/08/31 03:19:56;;;;;;;63.75;40.13;;;14.20;99.90;;;;;;5075434;28;20967;-77
2021/08/31 03:22:22;;;;;;;69.35;40.20;;;14.20;99.90;;;;;;5072427;28;20391;-79
2021/08/31 03:24:48;;;;;;;71.23;41.73;;;14.10;99.90;;;;;;5071046;28;20380;-76
2021/08/31 03:27:13;;;;;;;65.63;41.50;;;14.20;99.90;;;;;;5074173;28;20446;-78
2021/08/31 03:29:39;;;;;;;74.93;40.03;;;14.20;99.90;;;;;;5073057;28;20410;-77
2021/08/31 03:32:05;;;;;;;73.90;42.90;;;14.10;99.90;;;;;;5072613;28;20736;-77
2021/08/31 03:34:30;;;;;;;75.78;43.13;;;14.10;99.90;;;;;;5073920;28;20853;-77
2021/08/31 03:36:56;;;;;;;73.30;43.10;;;14.10;99.90;;;;;;5071830;28;20390;-76
2021/08/31 03:39:21;;;;;;;76.10;43.03;;;14.20;99.90;;;;;;5071074;28;20380;-76
2021/08/31 03:41:47;;;;;;;71.77;42.87;;;14.20;99.90;;;;;;5071507;28;20530;-77
2021/08/31 03:44:13;;;;;;;82.30;42.87;;;14.30;99.90;;;;;;5071903;28;20429;-77
2021/08/31 03:46:38;;;;;;;64.90;41.90;;;14.30;99.90;;;;;;5053692;28;20383;-77
2021/08/31 03:49:04;;;;;;;67.27;41.83;;;14.40;99.90;;;;;;5059053;28;20421;-76
2021/08/31 03:51:29;;;;;;;67.55;41.60;;;14.50;99.90;;;;;;5085435;28;20395;-76
2021/08/31 03:53:56;;;;;;;72.22;42.65;;;14.60;99.90;;;;;;5083596;28;20380;-77
2021/08/31 03:56:22;;;;;;;73.97;40.97;;;14.60;99.90;;;;;;5081878;28;20376;-77
2021/08/31 03:58:47;;;;;;;68.50;42.20;;;14.60;99.90;;;;;;5079398;28;20918;-77
2021/08/31 04:01:13;;;;;;;72.23;40.83;;;14.70;99.90;;;;;;5057685;28;20391;-76
2021/08/31 04:03:38;;;;;;;63.53;38.83;;;14.70;99.90;;;;;;5081066;28;20402;-77
2021/08/31 04:06:04;;;;;;;64.00;37.50;;;14.80;99.90;;;;;;5085931;28;20395;-78
2021/08/31 04:08:30;;;;;;;67.55;39.83;;;14.90;97.80;;;;;;5083870;28;20404;-78
2021/08/31 04:10:56;;;;;;;65.70;40.47;;;14.80;97.00;;;;;;5084257;28;20395;-77
2021/08/31 04:13:21;;;;;;;65.00;39.50;;;14.80;98.00;;;;;;5083372;28;20462;-77
2021/08/31 04:15:48;;;;;;;72.00;43.33;;;14.80;98.90;;;;;;5081523;28;20533;-77
2021/08/31 04:18:14;;;;;;;74.05;42.45;;;14.80;99.10;;;;;;5080665;28;20798;-77
2021/08/31 04:20:40;;;;;;;74.97;44.90;;;14.80;98.80;;;;;;5076620;28;20391;-77
2021/08/31 04:23:06;;;;;;;73.38;44.28;;;14.90;99.60;;;;;;5077711;28;20379;-77
2021/08/31 04:25:31;;;;;;;73.25;43.42;;;14.90;97.80;;;;;;5076519;28;20387;-77
2021/08/31 04:27:57;;;;;;;85.57;47.15;;;14.90;97.00;;;;;;5076424;28;20408;-77
2021/08/31 04:30:22;;;;;;;86.35;47.65;;;14.90;97.00;;;;;;5075876;28;20390;-76
2021/08/31 04:32:48;;;;;;;95.30;47.83;;;14.90;97.70;;;;;;5076348;28;20379;-76
2021/08/31 04:35:13;;;;;;;97.50;51.70;;;14.80;97.90;;;;;;5080586;28;20391;-78
2021/08/31 04:37:39;;;;;;;101.97;51.73;;;14.80;99.60;;;;;;5063225;28;20384;-79
2021/08/31 04:40:05;;;;;;;108.80;55.13;;;14.80;99.60;;;;;;5080434;28;20402;-78
2021/08/31 04:42:31;;;;;;;103.38;53.17;;;14.80;99.90;;;;;;5079064;28;20388;-77
2021/08/31 04:44:56;;;;;;;112.90;55.22;;;14.80;99.90;;;;;;5078206;28;20388;-77
2021/08/31 04:47:23;;;;;;;113.10;54.80;;;14.90;99.90;;;;;;5059804;28;20392;-77
2021/08/31 04:49:48;;;;;;;116.70;54.80;;;14.90;99.60;;;;;;5077044;28;20946;-78
2021/08/31 04:52:14;;;;;;;113.10;54.90;;;14.90;99.70;;;;;;5080738;28;20384;-78
2021/08/31 04:54:40;;;;;;;118.70;55.57;;;14.90;99.10;;;;;;5084548;28;20390;-76
2021/08/31 04:57:06;;;;;;;117.55;54.60;;;15.00;99.80;;;;;;5069457;28;20438;-76
2021/08/31 04:59:31;;;;;;;122.15;55.83;;;15.00;98.20;;;;;;5075302;28;20380;-77
2021/08/31 05:01:57;;;;;;;138.13;58.75;;;15.00;97.90;;;;;;5081986;28;20383;-77
2021/08/31 05:04:28;;;;;;;140.53;62.17;;;15.00;98.60;;;;;;5063004;28;20391;-76
2021/08/31 05:06:54;;;;;;;139.18;59.83;;;15.00;98.40;;;;;;5059296;28;20386;-77
2021/08/31 05:09:19;;;;;;;153.40;64.13;;;15.10;97.20;;;;;;5057861;28;20399;-77
2021/08/31 05:11:45;;;;;;;147.35;64.82;;;15.20;97.70;;;;;;5061704;28;20387;-78
2021/08/31 05:14:10;;;;;;;136.10;63.60;;;15.20;95.80;;;;;;5081560;28;20445;-77
2021/08/31 05:16:37;;;;;;;157.10;65.67;;;15.20;96.50;;;;;;5078967;28;20418;-78
2021/08/31 05:19:03;;;;;;;152.43;65.63;;;15.10;97.30;;;;;;5072091;28;20390;-76
2021/08/31 05:21:28;;;;;;;152.53;64.80;;;15.10;96.70;;;;;;5073078;28;20782;-76
2021/08/31 05:23:55;;;;;;;165.23;70.33;;;15.10;96.20;;;;;;5072333;28;20375;-76
2021/08/31 05:26:21;;;;;;;161.43;67.70;;;15.10;98.20;;;;;;5071411;28;20375;-76
2021/08/31 05:28:47;;;;;;;166.15;66.25;;;15.20;98.00;;;;;;5071826;28;20399;-75
2021/08/31 05:31:12;;;;;;;169.80;69.40;;;15.20;96.60;;;;;;5071744;28;20383;-75
2021/08/31 05:33:38;;;;;;;156.67;66.87;;;15.20;96.90;;;;;;5072299;28;20391;-75
2021/08/31 05:36:03;;;;;;;166.90;72.80;;;15.20;97.00;;;;;;5071720;28;20733;-75
2021/08/31 05:38:29;;;;;;;166.03;68.07;;;15.20;97.50;;;;;;5072048;28;20380;-75
2021/08/31 05:40:54;;;;;;;149.87;64.50;;;15.40;95.90;;;;;;5072071;28;20481;-75
2021/08/31 05:43:20;;;;;;;145.40;62.70;;;15.40;91.60;;;;;;5076525;28;20383;-74
2021/08/31 05:45:46;;;;;;;141.15;60.63;;;15.40;91.80;;;;;;5082223;28;20426;-79
2021/08/31 05:48:11;;;;;;;152.07;64.15;;;15.40;88.20;;;;;;5060164;28;20475;-77
2021/08/31 05:50:37;;;;;;;158.30;63.33;;;15.40;88.00;;;;;;5075408;28;20525;-76
2021/08/31 05:53:03;;;;;;;157.50;66.90;;;15.30;88.60;;;;;;5071709;28;20387;-76
2021/08/31 05:55:28;;;;;;;165.07;67.50;;;15.30;89.20;;;;;;5071982;28;20423;-76
2021/08/31 05:57:54;;;;;;;159.73;69.60;;;15.40;89.00;;;;;;5073175;28;20393;-76
2021/08/31 06:00:19;;;;;;;181.13;70.40;;;15.50;91.20;;;;;;5072012;28;20391;-76
2021/08/31 06:02:45;;;;;;;182.30;72.50;;;15.60;87.10;;;;;;5075406;28;20707;-76
2021/08/31 06:05:12;;;;;;;170.37;73.00;;;15.60;84.10;;;;;;5073648;28;20431;-75
2021/08/31 06:07:44;;;;;;;172.68;73.00;;;15.70;84.00;;;;;;5068890;28;20415;-77
2021/08/31 06:10:10;;;;;;;168.80;70.25;;;15.70;83.10;;;;;;5069958;28;20396;-76
2021/08/31 06:12:36;;;;;;;171.18;74.25;;;15.70;81.60;;;;;;5071969;28;20414;-77
2021/08/31 06:15:01;;;;;;;169.82;71.53;;;15.80;83.60;;;;;;5070406;28;20387;-76
2021/08/31 06:17:27;;;;;;;173.48;73.80;;;15.90;82.40;;;;;;5070976;28;20431;-76
2021/08/31 06:19:53;;;;;;;172.93;70.93;;;15.90;81.20;;;;;;5071313;28;20791;-75
2021/08/31 06:22:19;;;;;;;153.27;67.63;;;16.00;79.00;;;;;;5070881;28;20876;-76
2021/08/31 06:24:46;;;;;;;160.95;70.03;;;16.10;77.50;;;;;;5071987;28;20380;-77
2021/08/31 06:27:12;;;;;;;161.10;66.82;;;16.10;77.20;;;;;;5072533;28;20410;-75
2021/08/31 06:29:37;;;;;;;171.95;72.85;;;16.10;76.80;;;;;;5054377;28;20380;-77
2021/08/31 06:32:04;;;;;;;176.70;71.97;;;16.10;75.80;;;;;;5071937;28;20396;-76
2021/08/31 06:34:29;;;;;;;160.88;70.78;;;16.00;76.60;;;;;;5070824;28;20478;-76
2021/08/31 06:36:55;;;;;;;186.90;78.05;;;15.90;78.90;;;;;;5071383;28;20375;-75
2021/08/31 06:39:20;;;;;;;174.07;78.60;;;15.70;81.90;;;;;;5070061;28;20403;-75
2021/08/31 06:41:46;;;;;;;186.20;78.07;;;15.80;83.40;;;;;;5070317;28;20422;-74
2021/08/31 06:44:12;;;;;;;177.63;73.73;;;15.80;82.60;;;;;;5069971;28;20812;-75
2021/08/31 06:46:38;;;;;;;178.30;76.80;;;15.80;80.20;;;;;;5046977;28;20383;-75
2021/08/31 06:49:03;;;;;;;171.70;74.85;;;15.80;80.30;;;;;;5069452;28;20407;-75
2021/08/31 06:51:29;;;;;;;174.80;74.10;;;15.90;79.30;;;;;;5070319;28;20408;-75
2021/08/31 06:53:54;;;;;;;181.60;75.27;;;15.90;77.70;;;;;;5070496;28;20411;-76
2021/08/31 06:56:20;;;;;;;181.05;79.82;;;15.80;77.90;;;;;;5069747;28;20387;-74
2021/08/31 06:58:47;;;;;;;185.27;79.72;;;15.80;79.20;;;;;;5070442;28;20442;-76
2021/08/31 07:01:13;;;;;;;172.57;78.13;;;15.80;80.30;;;;;;5069763;28;20465;-75
2021/08/31 07:03:39;;;;;;;164.20;71.80;;;15.80;78.60;;;;;;5070861;28;20395;-75
2021/08/31 07:06:05;;;;;;;169.03;76.00;;;15.90;75.00;;;;;;5072908;28;20760;-77
2021/08/31 07:08:31;;;;;;;161.63;74.57;;;15.90;75.60;;;;;;5078385;28;20487;-76
2021/08/31 07:10:56;;;;;;;154.48;73.05;;;16.00;72.90;;;;;;5075145;28;20830;-76
2021/08/31 07:13:23;;;;;;;158.60;73.72;;;16.10;71.70;;;;;;5074181;28;20392;-77
2021/08/31 07:15:48;;;;;;;158.05;73.10;;;16.20;71.20;;;;;;5072502;28;20396;-76
2021/08/31 07:18:14;;;;;;;151.80;75.53;;;16.10;68.90;;;;;;5070466;28;20475;-76
2021/08/31 07:20:40;;;;;;;155.33;75.90;;;16.30;68.60;;;;;;5074968;28;20407;-77
2021/08/31 07:23:06;;;;;;;155.27;76.27;;;16.40;65.90;;;;;;5080758;28;20422;-77
2021/08/31 07:25:32;;;;;;;152.93;75.03;;;16.50;63.40;;;;;;5074070;28;20404;-77
2021/08/31 07:27:57;;;;;;;149.57;76.15;;;16.60;63.40;;;;;;5073153;28;20406;-77
2021/08/31 07:30:23;;;;;;;142.75;69.55;;;16.60;61.90;;;;;;5073646;28;20412;-77
2021/08/31 07:32:48;;;;;;;133.48;68.00;;;16.60;60.60;;;;;;5073493;28;20967;-77
2021/08/31 07:35:14;;;;;;;132.00;66.40;;;16.50;61.40;;;;;;5066330;28;20837;-77
2021/08/31 07:37:40;;;;;;;143.90;66.80;;;16.40;63.00;;;;;;5058863;28;20459;-77
2021/08/31 07:40:06;;;;;;;136.07;64.80;;;16.40;63.80;;;;;;5070171;28;20403;-77
2021/08/31 07:42:33;;;;;;;144.43;72.20;;;16.20;65.80;;;;;;5061533;28;20395;-77
2021/08/31 07:45:04;;;;;;;152.07;76.07;;;16.20;67.50;;;;;;5079419;28;20392;-76
2021/08/31 07:47:30;;;;;;;134.40;68.10;;;16.20;67.80;;;;;;5077241;28;20516;-77
2021/08/31 07:49:55;;;;;;;152.05;75.05;;;16.30;65.40;;;;;;5079106;28;20404;-77
2021/08/31 07:52:21;;;;;;;145.97;73.80;;;16.20;67.70;;;;;;5069592;28;20442;-76
2021/08/31 07:54:46;;;;;;;137.23;69.43;;;16.20;67.00;;;;;;5080452;28;20475;-77
2021/08/31 07:57:12;;;;;;;135.80;68.72;;;16.20;67.00;;;;;;5079230;28;20423;-77
2021/08/31 07:59:37;;;;;;;146.60;67.17;;;16.20;67.40;;;;;;5078357;28;20392;-77
2021/08/31 08:02:03;;;;;;;157.77;72.07;;;16.20;65.80;;;;;;5077174;28;20408;-76
2021/08/31 08:04:30;;;;;;;162.37;72.30;;;16.40;64.90;;;;;;5075411;28;20419;-75
2021/08/31 08:06:56;;;;;;;151.70;71.75;;;16.40;65.20;;;;;;5077406;28;20875;-76
2021/08/31 08:09:22;;;;;;;148.55;70.63;;;16.50;64.50;;;;;;5077885;28;20423;-76
2021/08/31 08:11:47;;;;;;;138.93;67.03;;;16.60;63.90;;;;;;5078227;28;20380;-75
2021/08/31 08:14:13;;;;;;;137.23;67.97;;;16.60;63.00;;;;;;5077233;28;20899;-76
2021/08/31 08:16:39;;;;;;;131.00;66.47;;;16.70;62.10;;;;;;5076960;28;21002;-77
2021/08/31 08:19:04;;;;;;;128.87;60.40;;;16.60;62.30;;;;;;5065472;28;20419;-77
2021/08/31 08:21:30;;;;;;;128.27;60.90;;;16.60;62.90;;;;;;5078377;28;20396;-76
2021/08/31 08:23:55;;;;;;;126.65;64.75;;;16.60;63.00;;;;;;5079940;28;20411;-74
2021/08/31 08:26:21;;;;;;;113.10;56.33;;;16.70;62.90;;;;;;5072789;28;20403;-74
2021/08/31 08:28:47;;;;;;;114.43;58.15;;;16.80;60.40;;;;;;5073925;28;20899;-74
2021/08/31 08:31:12;;;;;;;115.77;56.27;;;16.90;58.70;;;;;;5073270;28;20852;-74
2021/08/31 08:33:38;;;;;;;108.93;54.37;;;17.00;58.00;;;;;;5073419;28;20379;-73
2021/08/31 08:36:06;;;;;;;108.90;56.35;;;17.00;58.40;;;;;;5072709;28;20398;-74
2021/08/31 08:38:32;;;;;;;120.32;59.90;;;17.00;59.30;;;;;;5073095;28;20415;-73
2021/08/31 08:41:00;;;;;;;105.90;57.20;;;17.00;59.20;;;;;;5073026;28;20399;-73
2021/08/31 08:43:26;;;;;;;102.43;53.35;;;17.10;58.50;;;;;;5078835;28;20472;-78
2021/08/31 08:45:52;;;;;;;94.20;52.10;;;17.20;58.10;;;;;;5078072;28;20384;-77
2021/08/31 08:48:25;;;;;;;98.10;52.77;;;17.30;57.70;;;;;;5063024;28;20491;-77
2021/08/31 08:50:55;;;;;;;104.95;56.83;;;17.30;56.00;;;;;;5066704;28;20443;-76
2021/08/31 08:53:21;;;;;;;124.13;62.20;;;17.20;57.10;;;;;;5086179;28;20376;-77
2021/08/31 08:55:48;;;;;;;122.30;61.73;;;17.30;57.90;;;;;;5076774;28;20407;-76
2021/08/31 08:58:14;;;;;;;129.13;65.85;;;17.40;56.30;;;;;;5079725;28;20398;-76
2021/08/31 09:00:55;;;;;;;130.15;69.57;;;17.50;55.00;;;;;;5078665;28;20821;-76
2021/08/31 09:03:23;;;;;;;132.75;69.22;;;17.50;55.80;;;;;;5082997;28;20797;-76
2021/08/31 09:06:03;;;;;;;131.57;68.85;;;17.60;54.00;;;;;;5081574;28;20400;-76
2021/08/31 09:08:29;;;;;;;132.07;69.55;;;17.60;54.70;;;;;;5065567;28;20427;-76
2021/08/31 09:10:54;;;;;;;115.10;61.80;;;17.60;54.10;;;;;;5085003;28;20376;-76
2021/08/31 09:13:21;;;;;;;113.10;61.43;;;17.70;54.00;;;;;;5080900;28;20391;-76
2021/08/31 09:15:47;;;;;;;107.80;59.40;;;17.80;52.20;;;;;;5073496;28;20421;-76
2021/08/31 09:18:16;;;;;;;107.32;61.10;;;17.90;52.10;;;;;;5068320;28;20388;-78
2021/08/31 09:20:45;;;;;;;101.53;55.55;;;18.30;49.30;;;;;;5055910;28;20882;-77
2021/08/31 09:23:16;;;;;;;93.57;56.13;;;18.60;46.30;;;;;;5074739;28;20419;-77
2021/08/31 09:25:45;;;;;;;84.50;47.20;;;18.70;46.40;;;;;;5077479;28;20744;-77
2021/08/31 09:28:31;;;;;;;68.00;41.13;;;19.20;43.40;;;;;;5068149;28;20461;-77
2021/08/31 09:31:00;;;;;;;69.82;41.20;;;19.50;41.40;;;;;;5074561;28;20387;-77
2021/08/31 09:33:29;;;;;;;68.43;40.20;;;19.70;40.40;;;;;;5075806;28;20879;-77
2021/08/31 09:36:00;;;;;;;62.10;37.70;;;20.20;38.60;;;;;;5073323;28;20396;-77
2021/08/31 09:38:43;;;;;;;61.17;36.10;;;20.30;37.00;;;;;;5075889;28;20498;-79
2021/08/31 09:41:08;;;;;;;62.17;36.65;;;19.60;39.00;;;;;;5069241;28;20426;-77
2021/08/31 09:43:34;;;;;;;60.58;36.42;;;19.10;42.10;;;;;;5073004;28;20387;-76
2021/08/31 09:46:00;;;;;;;61.22;34.50;;;18.90;43.20;;;;;;5074726;28;20380;-77
2021/08/31 09:48:25;;;;;;;54.33;32.70;;;18.70;43.40;;;;;;5057629;28;20418;-77
2021/08/31 09:50:58;;;;;;;52.73;30.23;;;18.70;43.70;;;;;;5075351;28;20411;-76
2021/08/31 09:53:26;;;;;;;55.63;30.20;;;19.00;42.90;;;;;;5075668;28;20749;-77
2021/08/31 09:56:06;;;;;;;53.03;30.92;;;19.30;41.30;;;;;;5074636;28;20453;-77
2021/08/31 09:58:33;;;;;;;52.03;31.17;;;19.10;42.90;;;;;;5076349;28;20388;-76
2021/08/31 10:00:59;;;;;;;44.85;27.25;;;19.40;42.80;;;;;;5061453;28;20765;-77
2021/08/31 10:03:26;;;;;;;38.35;23.13;;;20.00;37.20;;;;;;5076775;28;20394;-77
2021/08/31 10:05:54;;;;;;;40.72;24.55;;;20.20;36.90;;;;;;5077900;28;20490;-77
2021/08/31 10:08:20;;;;;;;37.72;20.65;;;20.00;37.10;;;;;;5076580;28;20403;-77
2021/08/31 10:10:48;;;;;;;31.05;18.30;;;20.10;37.90;;;;;;5073859;28;20387;-77
2021/08/31 10:13:17;;;;;;;28.80;17.98;;;19.80;37.80;;;;;;5082044;28;20423;-77
2021/08/31 10:15:46;;;;;;;31.75;18.00;;;19.80;37.20;;;;;;5082768;28;20395;-77
2021/08/31 10:18:16;;;;;;;30.95;18.42;;;19.90;35.60;;;;;;5077657;28;20391;-77
2021/08/31 10:20:50;;;;;;;33.05;17.90;;;20.30;35.40;;;;;;5077941;28;20395;-78
2021/08/31 10:23:22;;;;;;;30.60;17.77;;;20.30;35.50;;;;;;5079081;28;20392;-77
2021/08/31 10:25:47;;;;;;;35.15;20.20;;;19.80;36.70;;;;;;5079937;28;20399;-76
2021/08/31 10:28:25;;;;;;;32.05;18.48;;;19.50;37.20;;;;;;5074343;28;20403;-76
2021/08/31 10:30:51;;;;;;;26.83;17.50;;;19.50;36.60;;;;;;5079360;28;21115;-77
2021/08/31 10:33:28;;;;;;;33.43;18.00;;;19.80;35.10;;;;;;5077688;28;20776;-76
2021/08/31 10:35:55;;;;;;;26.45;17.27;;;20.00;34.20;;;;;;5074360;28;20444;-76
2021/08/31 10:38:43;;;;;;;24.15;16.30;;;20.20;32.80;;;;;;5072084;28;20379;-77
2021/08/31 10:41:43;;;;;;;26.10;16.60;;;20.30;31.30;;;;;;5057705;28;20893;-77
2021/08/31 10:44:11;;;;;;;22.92;15.32;;;20.20;31.70;;;;;;5058059;28;20877;-76
2021/08/31 10:47:05;;;;;;;22.83;15.38;;;19.90;30.50;;;;;;5071818;28;20391;-77
2021/08/31 10:49:30;;;;;;;19.77;14.27;;;19.60;31.50;;;;;;5070408;28;20428;-77
2021/08/31 10:52:14;;;;;;;20.38;14.43;;;19.50;31.40;;;;;;5071642;28;20902;-76
2021/08/31 10:54:47;;;;;;;23.60;15.37;;;19.90;30.50;;;;;;5072527;28;20475;-77
2021/08/31 10:57:39;;;;;;;21.23;15.50;;;20.30;29.40;;;;;;5057034;28;20388;-77
2021/08/31 11:00:17;;;;;;;18.33;13.90;;;20.80;28.50;;;;;;5067835;28;20756;-77
2021/08/31 11:02:46;;;;;;;16.80;12.95;;;20.90;26.00;;;;;;5073931;28;20392;-78
2021/08/31 11:05:24;;;;;;;17.67;11.95;;;20.50;26.20;;;;;;5074163;28;20396;-76
2021/08/31 11:08:01;;;;;;;17.88;11.73;;;20.20;27.80;;;;;;5078294;28;20399;-77
2021/08/31 11:10:33;;;;;;;16.77;10.85;;;20.40;27.80;;;;;;5080398;28;20395;-77
2021/08/31 11:13:07;;;;;;;19.77;12.60;;;20.60;28.30;;;;;;5079938;28;20382;-76
2021/08/31 11:15:33;;;;;;;16.98;12.45;;;20.80;26.90;;;;;;5082201;28;20379;-77
2021/08/31 11:17:59;;;;;;;24.73;12.80;;;20.80;26.50;;;;;;5081745;28;20400;-76
2021/08/31 11:20:25;;;;;;;18.30;12.80;;;20.80;26.90;;;;;;5081832;28;20485;-77
2021/08/31 11:23:14;;;;;;;20.77;13.07;;;20.90;27.00;;;;;;5065892;28;20439;-77
2021/08/31 11:26:01;;;;;;;18.30;13.40;;;21.20;25.20;;;;;;5083438;28;20462;-76
2021/08/31 11:28:29;;;;;;;19.88;13.15;;;21.20;25.80;;;;;;5082524;28;20410;-78
2021/08/31 11:31:12;;;;;;;17.70;11.90;;;21.00;25.30;;;;;;5077169;28;20413;-77
2021/08/31 11:33:41;;;;;;;16.65;12.20;;;20.60;25.30;;;;;;5076834;28;20485;-77
2021/08/31 11:36:08;;;;;;;15.97;10.40;;;20.40;26.50;;;;;;5075516;28;20388;-77
2021/08/31 11:38:35;;;;;;;18.17;10.98;;;20.30;25.30;;;;;;5058277;28;20761;-78
2021/08/31 11:41:43;;;;;;;17.97;11.03;;;20.30;26.50;;;;;;5065320;28;20440;-77
2021/08/31 11:44:14;;;;;;;16.15;10.77;;;20.70;25.30;;;;;;5065062;28;20835;-77
2021/08/31 11:46:47;;;;;;;18.87;10.70;;;21.10;24.20;;;;;;5077418;28;20749;-77
2021/08/31 11:49:20;;;;;;;14.30;9.98;;;21.40;23.20;;;;;;5057923;28;20461;-76
2021/08/31 11:51:55;;;;;;;15.77;10.40;;;21.20;22.40;;;;;;5059605;28;20391;-75
2021/08/31 11:54:22;;;;;;;18.48;10.98;;;21.00;23.30;;;;;;5076813;28;20398;-78
2021/08/31 11:56:56;;;;;;;14.45;9.88;;;21.20;24.30;;;;;;5075462;28;20380;-75
2021/08/31 11:59:34;;;;;;;19.65;10.10;;;21.40;22.20;;;;;;5073639;28;20399;-77
2021/08/31 12:02:22;;;;;;;15.10;10.20;;;21.70;21.10;;;;;;5074119;28;20899;-77
2021/08/31 12:04:54;;;;;;;15.00;9.80;;;22.00;20.20;;;;;;5075526;28;20426;-77
2021/08/31 12:07:24;;;;;;;14.52;9.00;;;21.80;19.20;;;;;;5057188;28;20475;-77
2021/08/31 12:09:52;;;;;;;14.03;8.00;;;21.70;20.40;;;;;;5075861;28;20384;-77
2021/08/31 12:12:19;;;;;;;15.23;8.77;;;21.70;20.20;;;;;;5073633;28;20391;-76
2021/08/31 12:14:49;;;;;;;16.23;9.65;;;21.90;20.10;;;;;;5073513;28;20383;-76
2021/08/31 12:17:43;;;;;;;19.38;11.00;;;22.10;22.00;;;;;;5074471;28;20448;-76
2021/08/31 12:20:14;;;;;;;13.97;10.63;;;21.70;22.40;;;;;;5057560;28;20928;-76
2021/08/31 12:22:47;;;;;;;16.83;11.03;;;21.30;23.00;;;;;;5074948;28;20383;-76
2021/08/31 12:25:15;;;;;;;17.70;11.02;;;21.10;25.00;;;;;;5073443;28;20407;-76
2021/08/31 12:27:47;;;;;;;22.48;10.35;;;20.90;24.50;;;;;;5073828;28;20407;-76